Terminal Aerodrome Forecast
Issued by NWS Blacksburg, VA

Home | Current Version | Previous Version | Text Only | Print | Product List | Glossary On
Versions: 1 2 3 4 5 6 7 8 9 10 11 12 13 14 15 16 17 18 19 20 21 22 23 24 25
000
FTUS41 KRNK 200520
TAFBLF
TAF
KBLF 200520Z 2006/2106 26008KT P6SM SKC
     FM200900 26009KT P6SM SCT040 WS020/27040KT
     FM201500 26013G26KT P6SM BKN025 WS020/28045KT
     FM210400 25008KT P6SM BKN008=

USA.gov is the U.S. government's official web portal to all federal, state and local government web resources and services.